createdAt,value
2023-04-27T00:00:12.892Z,2.80
2023-04-27T00:02:59.394Z,2.57
2023-04-27T00:05:46.465Z,2.23
2023-04-27T00:08:33.061Z,1.90
2023-04-27T00:11:19.732Z,2.03
2023-04-27T00:14:07.383Z,1.80
2023-04-27T00:16:53.953Z,1.80
2023-04-27T00:19:41.908Z,2.30
2023-04-27T00:22:28.294Z,2.30
2023-04-27T00:25:14.665Z,2.13
2023-04-27T00:28:01.269Z,2.03
2023-04-27T00:30:48.978Z,2.33
2023-04-27T00:33:35.452Z,3.23
2023-04-27T00:36:22.190Z,2.20
2023-04-27T00:39:09.208Z,2.03
2023-04-27T00:41:55.288Z,1.80
2023-04-27T00:44:41.913Z,2.20
2023-04-27T00:47:29.531Z,3.87
2023-04-27T00:50:16.357Z,2.37
2023-04-27T00:53:03.519Z,3.90
2023-04-27T00:55:50.275Z,3.30
2023-04-27T00:58:36.711Z,2.30
2023-04-27T01:01:23.835Z,2.13
2023-04-27T01:04:12.122Z,2.33
2023-04-27T01:06:58.755Z,3.93
2023-04-27T01:09:46.760Z,2.07
2023-04-27T01:12:33.169Z,2.57
2023-04-27T01:15:19.836Z,2.80
2023-04-27T01:18:06.757Z,3.37
2023-04-27T01:20:54.804Z,2.33
2023-04-27T01:23:42.603Z,2.57
2023-04-27T01:26:28.847Z,2.97
2023-04-27T01:29:15.540Z,2.20
2023-04-27T01:32:01.900Z,4.93
2023-04-27T01:34:48.400Z,4.17
2023-04-27T01:37:35.030Z,2.60
2023-04-27T01:40:23.100Z,2.57
2023-04-27T01:43:09.513Z,2.40
2023-04-27T01:45:55.865Z,3.17
2023-04-27T01:48:42.826Z,3.00
2023-04-27T01:51:29.042Z,2.10
2023-04-27T01:54:15.434Z,5.20
2023-04-27T01:57:03.439Z,2.53
2023-04-27T01:59:49.928Z,2.93
2023-04-27T02:02:36.805Z,2.87
2023-04-27T02:05:23.088Z,3.20
2023-04-27T02:08:09.692Z,3.03
2023-04-27T02:10:56.082Z,2.87
2023-04-27T02:13:43.881Z,3.13
2023-04-27T02:16:30.233Z,3.63
2023-04-27T02:19:16.875Z,2.90
2023-04-27T02:22:03.588Z,2.83
2023-04-27T02:24:50.293Z,3.13
2023-04-27T02:27:38.205Z,3.30
2023-04-27T02:30:26.715Z,3.17
2023-04-27T02:33:13.078Z,3.60
2023-04-27T02:35:59.708Z,2.43
2023-04-27T02:38:46.006Z,3.63
2023-04-27T02:41:32.910Z,5.00
2023-04-27T02:44:19.286Z,3.63
2023-04-27T02:47:07.260Z,3.13
2023-04-27T02:49:54.251Z,4.07
2023-04-27T02:52:40.627Z,3.43
2023-04-27T02:55:27.674Z,3.80
2023-04-27T02:58:14.542Z,4.30
2023-04-27T03:01:01.558Z,4.47
2023-04-27T03:03:49.974Z,5.13
2023-04-27T03:06:36.592Z,3.67
2023-04-27T03:09:22.946Z,5.27
2023-04-27T03:12:09.419Z,4.33
2023-04-27T03:14:55.847Z,9.73
2023-04-27T03:17:42.286Z,5.10
2023-04-27T03:20:29.888Z,3.73
2023-04-27T03:23:16.390Z,4.60
2023-04-27T03:26:02.829Z,7.23
2023-04-27T03:28:48.985Z,5.87
2023-04-27T03:31:35.489Z,5.03
2023-04-27T03:34:23.513Z,4.70
2023-04-27T03:37:11.485Z,4.00
2023-04-27T03:39:57.831Z,5.90
2023-04-27T03:42:44.235Z,3.20
2023-04-27T03:45:30.601Z,5.37
2023-04-27T03:48:17.069Z,4.30
2023-04-27T03:51:03.709Z,4.53
2023-04-27T03:53:51.507Z,4.97
2023-04-27T03:56:38.126Z,5.07
2023-04-27T03:59:24.784Z,5.23
2023-04-27T04:02:11.799Z,7.33
2023-04-27T04:04:58.400Z,5.87
2023-04-27T04:07:44.802Z,7.33
2023-04-27T04:10:32.884Z,5.70
2023-04-27T04:13:19.320Z,3.73
2023-04-27T04:16:06.663Z,4.73
2023-04-27T04:18:53.300Z,4.03
2023-04-27T04:21:39.836Z,4.73
2023-04-27T04:24:26.442Z,6.93
2023-04-27T04:27:14.001Z,5.57
2023-04-27T04:30:00.906Z,7.30
2023-04-27T04:32:47.711Z,6.77
2023-04-27T04:35:34.141Z,7.00
2023-04-27T04:38:21.119Z,6.23
2023-04-27T04:41:07.573Z,8.20
2023-04-27T04:43:55.752Z,5.63
2023-04-27T04:46:42.187Z,7.07
2023-04-27T04:49:28.866Z,6.60
2023-04-27T04:52:16.130Z,6.50
2023-04-27T04:55:03.274Z,4.47
2023-04-27T04:57:49.837Z,5.60
2023-04-27T05:00:37.493Z,5.53
2023-04-27T05:03:23.944Z,15.70
2023-04-27T05:06:10.492Z,6.97
2023-04-27T05:08:58.357Z,8.07
2023-04-27T05:11:44.437Z,28.10
2023-04-27T05:14:31.104Z,16.40
2023-04-27T05:17:19.228Z,8.07
2023-04-27T05:20:06.435Z,7.60
2023-04-27T05:22:52.790Z,5.90
2023-04-27T05:25:41.880Z,8.33
2023-04-27T05:28:28.575Z,5.70
2023-04-27T05:31:14.975Z,5.83
2023-04-27T05:34:03.167Z,5.17
2023-04-27T05:36:49.593Z,10.33
2023-04-27T05:39:35.727Z,5.80
2023-04-27T05:42:22.181Z,7.27
2023-04-27T05:45:09.110Z,5.87
2023-04-27T05:47:55.748Z,11.83
2023-04-27T05:50:43.697Z,6.30
2023-04-27T05:53:30.457Z,10.07
2023-04-27T05:56:17.011Z,4.70
2023-04-27T05:59:03.585Z,4.33
2023-04-27T06:01:50.298Z,11.00
2023-04-27T06:04:37.365Z,5.60
2023-04-27T06:07:25.620Z,5.93
2023-04-27T06:10:12.383Z,6.37
2023-04-27T06:12:58.798Z,4.40
2023-04-27T06:15:45.411Z,4.27
2023-04-27T06:18:31.842Z,5.30
2023-04-27T06:21:18.046Z,7.50
2023-04-27T06:24:05.970Z,6.60
2023-04-27T06:26:52.823Z,7.10
2023-04-27T06:29:39.338Z,5.80
2023-04-27T06:32:26.247Z,6.10
2023-04-27T06:35:12.826Z,4.77
2023-04-27T06:37:59.483Z,45.03
2023-04-27T06:40:51.130Z,7.07
2023-04-27T06:43:37.765Z,8.53
2023-04-27T06:46:24.405Z,9.10
2023-04-27T06:49:11.093Z,7.33
2023-04-27T06:51:57.345Z,5.77
2023-04-27T06:54:43.747Z,18.30
2023-04-27T06:57:31.684Z,6.67
2023-04-27T07:00:18.463Z,9.40
2023-04-27T07:03:07.405Z,5.80
2023-04-27T07:05:54.105Z,10.40
2023-04-27T07:08:40.461Z,7.80
2023-04-27T07:11:27.038Z,5.20
2023-04-27T07:14:15.090Z,6.43
2023-04-27T07:17:01.560Z,6.07
2023-04-27T07:19:48.083Z,9.40
2023-04-27T07:22:34.470Z,4.70
2023-04-27T07:25:21.619Z,11.67
2023-04-27T07:28:09.001Z,19.03
2023-04-27T07:30:58.100Z,11.03
2023-04-27T07:33:47.466Z,8.67
2023-04-27T07:36:33.954Z,5.13
2023-04-27T07:39:20.860Z,7.07
2023-04-27T07:42:07.264Z,5.87
2023-04-27T07:44:54.346Z,7.53
2023-04-27T07:47:42.688Z,6.83
2023-04-27T07:50:30.275Z,6.43
2023-04-27T07:53:16.635Z,4.13
2023-04-27T07:56:03.162Z,6.27
2023-04-27T07:58:49.775Z,7.03
2023-04-27T08:01:36.454Z,5.63
2023-04-27T08:04:24.671Z,7.10
2023-04-27T08:07:11.896Z,5.97
2023-04-27T08:09:58.716Z,7.30
2023-04-27T08:12:45.100Z,8.70
2023-04-27T08:15:32.030Z,5.27
2023-04-27T08:18:19.441Z,4.93
2023-04-27T08:21:07.277Z,9.33
2023-04-27T08:23:53.602Z,9.10
2023-04-27T08:26:41.916Z,9.00
2023-04-27T08:29:29.276Z,8.63
2023-04-27T08:32:16.125Z,6.87
2023-04-27T08:35:02.615Z,8.87
2023-04-27T08:37:50.891Z,7.27
2023-04-27T08:40:37.302Z,7.57
2023-04-27T08:43:23.949Z,8.30
2023-04-27T08:46:10.425Z,8.17
2023-04-27T08:48:57.043Z,12.47
2023-04-27T08:51:43.725Z,11.20
2023-04-27T08:54:31.960Z,11.43
2023-04-27T08:57:18.305Z,8.60
2023-04-27T09:00:12.497Z,9.77
2023-04-27T09:02:59.130Z,10.43
2023-04-27T09:06:00.638Z,8.50
2023-04-27T09:08:50.915Z,8.30
2023-04-27T09:11:39.400Z,11.17
2023-04-27T09:14:25.765Z,9.67
2023-04-27T09:17:11.954Z,8.13
2023-04-27T09:20:08.825Z,8.33
2023-04-27T09:22:56.168Z,6.83
2023-04-27T09:25:42.940Z,8.37
2023-04-27T09:28:32.415Z,8.20
2023-04-27T09:31:19.274Z,8.13
2023-04-27T09:34:05.973Z,6.50
2023-04-27T09:36:52.632Z,11.87
2023-04-27T09:39:39.569Z,7.57
2023-04-27T09:42:26.086Z,8.37
2023-04-27T09:45:14.599Z,9.10
2023-04-27T09:48:02.079Z,7.90
2023-04-27T09:50:49.912Z,6.20
2023-04-27T09:53:38.384Z,8.73
2023-04-27T09:56:29.110Z,6.27
2023-04-27T09:59:30.045Z,9.13
2023-04-27T10:02:25.166Z,5.23
2023-04-27T10:05:21.734Z,15.97
2023-04-27T10:08:08.434Z,10.10
2023-04-27T10:10:54.869Z,5.67
2023-04-27T10:13:52.372Z,9.17
2023-04-27T10:16:45.994Z,12.47
2023-04-27T10:19:33.722Z,9.40
2023-04-27T10:22:19.895Z,8.17
2023-04-27T10:25:34.504Z,12.57
2023-04-27T10:28:21.456Z,10.10
2023-04-27T10:31:11.161Z,7.90
2023-04-27T10:34:08.122Z,8.03
2023-04-27T10:37:05.491Z,8.47
2023-04-27T10:39:53.550Z,11.90
2023-04-27T10:42:41.462Z,6.53
2023-04-27T10:45:31.167Z,8.90
2023-04-27T10:48:18.308Z,9.13
2023-04-27T10:51:05.074Z,9.47
2023-04-27T10:53:55.131Z,9.20
2023-04-27T10:56:42.286Z,7.00
2023-04-27T10:59:28.893Z,7.20
2023-04-27T11:02:15.516Z,5.87
2023-04-27T11:05:07.577Z,7.47
2023-04-27T11:08:05.482Z,7.63
2023-04-27T11:10:53.166Z,8.20
2023-04-27T11:13:39.239Z,6.30
2023-04-27T11:16:26.010Z,6.50
2023-04-27T11:19:13.062Z,7.63
2023-04-27T11:22:07.520Z,6.97
2023-04-27T11:24:54.064Z,6.10
2023-04-27T11:27:42.332Z,7.80
2023-04-27T11:30:28.672Z,7.40
2023-04-27T11:33:15.334Z,7.63
2023-04-27T11:36:01.815Z,6.20
2023-04-27T11:38:48.726Z,7.73
2023-04-27T11:41:35.874Z,9.03
2023-04-27T11:44:28.553Z,7.00
2023-04-27T11:47:19.225Z,7.07
2023-04-27T11:50:07.470Z,13.83
2023-04-27T11:52:54.385Z,7.77
2023-04-27T11:55:41.440Z,5.60
2023-04-27T11:58:44.373Z,7.10
2023-04-27T12:01:38.197Z,7.07
2023-04-27T12:04:25.601Z,10.00
2023-04-27T12:07:12.311Z,6.73
2023-04-27T12:13:29.094Z,10.70
2023-04-27T12:16:16.170Z,6.23
2023-04-27T12:19:35.629Z,8.30
2023-04-27T12:22:50.828Z,8.10
2023-04-27T12:25:37.729Z,4.70
2023-04-27T12:28:24.316Z,4.57
2023-04-27T12:31:14.729Z,6.33
2023-04-27T12:34:01.684Z,10.10
2023-04-27T12:36:48.189Z,9.73
2023-04-27T12:40:00.903Z,9.53
2023-04-27T12:42:47.209Z,6.87
2023-04-27T12:46:06.165Z,6.47
2023-04-27T12:48:52.860Z,5.67
2023-04-27T12:51:39.451Z,4.47
2023-04-27T12:54:25.890Z,7.60
2023-04-27T12:57:14.053Z,4.30
2023-04-27T13:00:01.800Z,4.73
2023-04-27T13:02:48.497Z,5.80
2023-04-27T13:05:35.711Z,6.13
2023-04-27T13:08:22.512Z,5.17
2023-04-27T13:11:08.905Z,5.90
2023-04-27T13:13:57.164Z,5.17
2023-04-27T13:16:46.505Z,4.77
2023-04-27T13:19:32.928Z,3.87
2023-04-27T13:22:21.004Z,5.63
2023-04-27T13:28:40.396Z,5.43
2023-04-27T13:32:15.278Z,3.60
2023-04-27T13:35:14.154Z,4.53
2023-04-27T13:38:01.157Z,5.33
2023-04-27T13:40:47.526Z,4.50
2023-04-27T13:43:43.730Z,3.60
2023-04-27T13:47:05.181Z,3.47
2023-04-27T13:49:51.875Z,5.27
2023-04-27T13:52:41.038Z,5.27
2023-04-27T13:55:27.610Z,3.80
2023-04-27T13:58:14.452Z,4.03
2023-04-27T14:01:01.345Z,4.70
2023-04-27T14:03:48.386Z,4.37
2023-04-27T14:07:08.022Z,5.50
2023-04-27T14:09:56.185Z,7.13
2023-04-27T14:12:42.874Z,4.63
2023-04-27T14:15:29.554Z,5.87
2023-04-27T14:18:31.737Z,8.40
2023-04-27T14:21:38.364Z,3.93
2023-04-27T14:25:08.373Z,3.90
2023-04-27T14:27:57.396Z,5.10
2023-04-27T14:30:44.059Z,3.40
2023-04-27T14:33:32.140Z,4.30
2023-04-27T14:39:08.698Z,4.83
2023-04-27T14:41:55.775Z,4.77
2023-04-27T14:44:43.534Z,8.50
2023-04-27T14:47:30.222Z,10.27
2023-04-27T14:50:16.816Z,6.37
2023-04-27T14:53:03.579Z,16.13
2023-04-27T14:56:26.663Z,11.23
2023-04-27T14:59:13.419Z,10.97
2023-04-27T15:02:01.494Z,7.33
2023-04-27T15:04:48.116Z,10.03
2023-04-27T15:07:34.736Z,5.40
2023-04-27T15:10:21.695Z,7.43
2023-04-27T15:13:08.118Z,7.27
2023-04-27T15:15:55.443Z,8.63
2023-04-27T15:18:43.227Z,5.67
2023-04-27T15:21:29.808Z,7.97
2023-04-27T15:24:16.525Z,8.40
2023-04-27T15:27:03.367Z,12.67
2023-04-27T15:29:49.751Z,17.33
2023-04-27T15:32:36.652Z,10.83
2023-04-27T15:35:24.294Z,18.00
2023-04-27T15:38:12.285Z,17.20
2023-04-27T15:40:59.050Z,15.87
2023-04-27T15:43:47.773Z,9.00
2023-04-27T15:46:34.161Z,11.00
2023-04-27T15:49:20.949Z,11.17
2023-04-27T15:52:08.853Z,12.87
2023-04-27T15:54:56.260Z,15.60
2023-04-27T15:57:43.120Z,14.57
2023-04-27T16:00:29.761Z,13.33
2023-04-27T16:03:16.394Z,16.87
2023-04-27T16:06:03.433Z,11.33
2023-04-27T16:08:51.265Z,11.63
2023-04-27T16:11:37.656Z,10.20
2023-04-27T16:14:24.241Z,9.17
2023-04-27T16:17:10.857Z,9.00
2023-04-27T16:19:57.262Z,7.17
2023-04-27T16:22:43.738Z,8.73
2023-04-27T16:25:31.492Z,8.03
2023-04-27T16:28:18.131Z,7.43
2023-04-27T16:31:04.445Z,8.10
2023-04-27T16:33:51.904Z,7.20
2023-04-27T16:36:38.138Z,6.03
2023-04-27T16:39:24.199Z,5.47
2023-04-27T16:42:13.422Z,7.67
2023-04-27T16:45:02.249Z,10.53
2023-04-27T16:47:48.927Z,5.50
2023-04-27T16:50:35.289Z,5.50
2023-04-27T16:53:22.212Z,7.43
2023-04-27T16:56:10.137Z,10.23
2023-04-27T16:59:59.840Z,6.30
2023-04-27T17:02:47.897Z,7.07
2023-04-27T17:05:34.370Z,5.23
2023-04-27T17:08:20.969Z,6.13
2023-04-27T17:11:08.957Z,6.53
2023-04-27T17:13:55.546Z,9.37
2023-04-27T17:16:42.316Z,41.20
2023-04-27T17:19:30.056Z,19.03
2023-04-27T17:22:16.643Z,24.10
2023-04-27T17:25:03.151Z,16.97
2023-04-27T17:27:49.579Z,9.87
2023-04-27T17:30:36.270Z,8.83
2023-04-27T17:33:22.965Z,5.27
2023-04-27T17:36:10.865Z,8.40
2023-04-27T17:38:57.692Z,8.73
2023-04-27T17:41:43.897Z,16.87
2023-04-27T17:44:30.305Z,7.93
2023-04-27T17:47:18.694Z,8.77
2023-04-27T17:50:05.724Z,11.27
2023-04-27T17:52:54.116Z,9.13
2023-04-27T17:55:40.722Z,6.83
2023-04-27T17:58:28.133Z,6.13
2023-04-27T18:01:14.327Z,6.07
2023-04-27T18:04:04.004Z,12.00
2023-04-27T18:06:51.597Z,6.03
2023-04-27T18:09:39.659Z,6.63
2023-04-27T18:12:26.484Z,7.00
2023-04-27T18:15:13.084Z,9.83
2023-04-27T18:17:59.574Z,12.47
2023-04-27T18:20:47.723Z,22.37
2023-04-27T18:23:35.493Z,56.37
2023-04-27T18:26:23.203Z,59.90
2023-04-27T18:29:09.910Z,68.47
2023-04-27T18:31:57.876Z,28.30
2023-04-27T18:34:44.710Z,15.77
2023-04-27T18:37:31.416Z,13.47
2023-04-27T18:40:21.329Z,8.60
2023-04-27T18:43:09.560Z,10.80
2023-04-27T18:45:56.508Z,12.00
2023-04-27T18:48:43.148Z,13.77
2023-04-27T18:51:30.050Z,12.20
2023-04-27T18:54:16.329Z,12.17
2023-04-27T18:57:04.394Z,12.70
2023-04-27T18:59:51.878Z,13.40
2023-04-27T19:02:38.334Z,11.80
2023-04-27T19:05:24.606Z,11.97
2023-04-27T19:08:11.328Z,12.90
2023-04-27T19:10:58.567Z,14.53
2023-04-27T19:13:46.247Z,35.87
2023-04-27T19:16:35.740Z,20.63
2023-04-27T19:19:22.331Z,15.30
2023-04-27T19:22:08.658Z,15.90
2023-04-27T19:24:55.486Z,15.87
2023-04-27T19:27:42.118Z,13.17
2023-04-27T19:30:28.796Z,14.57
2023-04-27T19:33:19.627Z,13.27
2023-04-27T19:36:06.969Z,14.80
2023-04-27T19:38:53.574Z,12.53
2023-04-27T19:41:40.148Z,14.93
2023-04-27T19:44:26.975Z,15.77
2023-04-27T19:47:13.331Z,16.03
2023-04-27T19:50:01.103Z,12.37
2023-04-27T19:52:47.683Z,11.30
2023-04-27T19:55:34.175Z,11.17
2023-04-27T19:58:20.816Z,10.23
2023-04-27T20:01:07.534Z,12.40
2023-04-27T20:03:54.145Z,13.00
2023-04-27T20:06:43.373Z,23.97
2023-04-27T20:09:29.743Z,18.40
2023-04-27T20:16:21.636Z,17.37
2023-04-27T20:19:08.207Z,15.33
2023-04-27T20:21:56.024Z,11.77
2023-04-27T20:24:42.631Z,12.27
2023-04-27T20:27:29.076Z,13.60
2023-04-27T20:30:16.065Z,13.93
2023-04-27T20:33:03.870Z,19.10
2023-04-27T20:35:55.537Z,16.60
2023-04-27T20:38:45.023Z,13.53
2023-04-27T20:41:33.667Z,17.00
2023-04-27T20:44:20.850Z,14.63
2023-04-27T20:47:07.165Z,16.47
2023-04-27T20:49:53.885Z,11.97
2023-04-27T20:52:40.541Z,12.00
2023-04-27T20:55:28.592Z,13.37
2023-04-27T20:58:15.268Z,14.70
2023-04-27T21:01:01.682Z,15.20
2023-04-27T21:03:48.224Z,11.90
2023-04-27T21:06:34.673Z,12.33
2023-04-27T21:09:21.090Z,11.67
2023-04-27T21:12:09.042Z,11.03
2023-04-27T21:14:54.922Z,8.10
2023-04-27T21:17:41.795Z,13.13
2023-04-27T21:20:28.484Z,8.73
2023-04-27T21:23:15.498Z,7.87
2023-04-27T21:26:01.951Z,7.57
2023-04-27T21:28:49.842Z,7.73
2023-04-27T21:31:36.407Z,5.93
2023-04-27T21:34:22.719Z,7.40
2023-04-27T21:37:09.420Z,6.47
2023-04-27T21:39:55.821Z,6.00
2023-04-27T21:42:42.700Z,4.87
2023-04-27T21:45:30.544Z,5.00
2023-04-27T21:48:16.904Z,4.97
2023-04-27T21:51:03.590Z,4.40
2023-04-27T21:53:49.679Z,5.30
2023-04-27T21:56:37.712Z,5.60
2023-04-27T21:59:24.013Z,6.80
2023-04-27T22:02:12.346Z,7.53
2023-04-27T22:04:59.614Z,5.03
2023-04-27T22:07:47.660Z,4.30
2023-04-27T22:10:34.038Z,5.13
2023-04-27T22:13:20.423Z,5.03
2023-04-27T22:16:07.000Z,7.20
2023-04-27T22:18:54.507Z,7.60
2023-04-27T22:21:40.668Z,8.57
2023-04-27T22:24:26.995Z,5.80
2023-04-27T22:27:13.852Z,5.80
2023-04-27T22:30:00.773Z,5.63
2023-04-27T22:32:47.344Z,5.33
2023-04-27T22:35:36.422Z,5.97
2023-04-27T22:38:22.933Z,5.73
2023-04-27T22:41:09.240Z,7.00
2023-04-27T22:43:55.619Z,6.63
2023-04-27T22:46:43.834Z,7.13
2023-04-27T22:49:30.386Z,9.83
2023-04-27T22:52:18.165Z,9.87
2023-04-27T22:55:04.899Z,9.00
2023-04-27T22:57:53.821Z,8.70
2023-04-27T23:00:40.541Z,7.07
2023-04-27T23:03:27.054Z,9.90
2023-04-27T23:06:14.309Z,8.37
2023-04-27T23:09:03.171Z,8.40
2023-04-27T23:11:50.961Z,9.83
2023-04-27T23:14:37.459Z,8.63
2023-04-27T23:17:30.800Z,9.77
2023-04-27T23:20:28.201Z,11.50
2023-04-27T23:23:15.605Z,11.00
2023-04-27T23:26:03.632Z,11.93
2023-04-27T23:28:49.957Z,13.00
2023-04-27T23:31:36.389Z,9.60
2023-04-27T23:34:23.159Z,9.30
2023-04-27T23:37:09.257Z,9.40
2023-04-27T23:39:56.062Z,9.00
2023-04-27T23:42:44.044Z,8.77
2023-04-27T23:45:30.712Z,8.70
2023-04-27T23:48:16.993Z,6.97
2023-04-27T23:51:04.276Z,7.67
2023-04-27T23:53:50.739Z,5.47
2023-04-27T23:56:37.752Z,5.30
2023-04-27T23:59:25.570Z,6.33
